createdAt,value
2022-10-06T00:01:20.579Z,43.78
2022-10-06T00:03:49.325Z,44.07
2022-10-06T00:06:19.607Z,43.99
2022-10-06T00:08:48.885Z,44.09
2022-10-06T00:11:17.839Z,44.17
2022-10-06T00:13:46.833Z,44.22
2022-10-06T00:16:24.883Z,44.29
2022-10-06T00:18:53.327Z,44.65
2022-10-06T00:21:22.225Z,44.94
2022-10-06T00:23:50.863Z,44.96
2022-10-06T00:26:19.646Z,45.13
2022-10-06T00:28:50.089Z,45.19
2022-10-06T00:31:20.080Z,45.37
2022-10-06T00:33:50.640Z,45.44
2022-10-06T00:36:20.053Z,45.45
2022-10-06T00:38:49.060Z,45.54
2022-10-06T00:41:19.357Z,45.52
2022-10-06T00:43:57.795Z,45.65
2022-10-06T00:46:45.574Z,45.71
2022-10-06T00:49:29.308Z,45.80
2022-10-06T00:52:07.857Z,45.84
2022-10-06T00:54:41.042Z,46.02
2022-10-06T00:57:09.959Z,46.13
2022-10-06T00:59:41.070Z,46.27
2022-10-06T01:02:30.100Z,46.38
2022-10-06T01:05:04.210Z,46.48
2022-10-06T01:07:33.632Z,46.53
2022-10-06T01:10:12.388Z,46.61
2022-10-06T01:12:41.592Z,46.69
2022-10-06T01:15:13.514Z,46.78
2022-10-06T01:17:56.227Z,46.85
2022-10-06T01:20:40.192Z,47.11
2022-10-06T01:23:10.904Z,47.37
2022-10-06T01:25:39.628Z,47.30
2022-10-06T01:28:11.719Z,47.45
2022-10-06T01:30:42.879Z,47.67
2022-10-06T01:33:12.775Z,47.78
2022-10-06T01:35:41.004Z,48.16
2022-10-06T01:38:09.226Z,48.31
2022-10-06T01:40:37.810Z,48.38
2022-10-06T01:43:06.730Z,48.31
2022-10-06T01:45:38.325Z,48.37
2022-10-06T01:48:08.101Z,48.43
2022-10-06T01:50:36.455Z,48.60
2022-10-06T01:53:05.130Z,48.61
2022-10-06T01:55:33.590Z,48.65
2022-10-06T01:58:02.079Z,48.73
2022-10-06T02:00:31.357Z,48.81
2022-10-06T02:02:59.883Z,48.93
2022-10-06T02:05:28.500Z,49.06
2022-10-06T02:07:57.271Z,49.54
2022-10-06T02:10:25.830Z,49.39
2022-10-06T02:12:55.080Z,49.33
2022-10-06T02:15:24.302Z,49.73
2022-10-06T02:17:56.050Z,50.00
2022-10-06T02:20:25.001Z,50.05
2022-10-06T02:22:53.467Z,49.95
2022-10-06T02:25:22.019Z,49.65
2022-10-06T02:27:51.134Z,49.06
2022-10-06T02:30:19.558Z,48.91
2022-10-06T02:32:47.968Z,48.71
2022-10-06T02:35:16.757Z,48.61
2022-10-06T02:37:48.084Z,48.79
2022-10-06T02:40:17.357Z,49.36
2022-10-06T02:42:46.442Z,49.78
2022-10-06T02:45:15.412Z,50.08
2022-10-06T02:47:44.125Z,49.62
2022-10-06T02:50:14.098Z,49.91
2022-10-06T02:52:43.225Z,50.20
2022-10-06T02:55:12.288Z,50.35
2022-10-06T02:57:41.274Z,49.92
2022-10-06T03:00:12.054Z,49.59
2022-10-06T03:02:40.576Z,49.51
2022-10-06T03:05:09.761Z,49.39
2022-10-06T03:07:38.368Z,49.46
2022-10-06T03:10:07.523Z,49.56
2022-10-06T03:12:35.988Z,49.58
2022-10-06T03:15:05.622Z,49.52
2022-10-06T03:17:34.274Z,49.42
2022-10-06T03:20:02.995Z,49.46
2022-10-06T03:22:31.685Z,49.43
2022-10-06T03:25:00.194Z,49.33
2022-10-06T03:27:28.742Z,49.26
2022-10-06T03:29:57.509Z,49.29
2022-10-06T03:32:26.169Z,49.47
2022-10-06T03:34:55.244Z,49.42
2022-10-06T03:37:23.995Z,49.50
2022-10-06T03:39:53.167Z,49.87
2022-10-06T03:42:22.157Z,49.80
2022-10-06T03:44:50.497Z,49.95
2022-10-06T03:47:19.614Z,50.09
2022-10-06T03:49:47.844Z,50.08
2022-10-06T03:52:16.338Z,50.12
2022-10-06T03:54:45.948Z,50.33
2022-10-06T03:57:14.411Z,50.43
2022-10-06T03:59:44.457Z,50.45
2022-10-06T04:02:13.013Z,50.80
2022-10-06T04:04:41.660Z,50.95
2022-10-06T04:07:10.584Z,51.23
2022-10-06T04:09:39.222Z,51.43
2022-10-06T04:12:07.880Z,51.71
2022-10-06T04:14:36.842Z,51.70
2022-10-06T04:17:05.270Z,51.92
2022-10-06T04:19:33.638Z,52.08
2022-10-06T04:22:02.324Z,52.36
2022-10-06T04:24:30.966Z,52.51
2022-10-06T04:27:19.548Z,52.75
2022-10-06T04:29:48.044Z,53.00
2022-10-06T04:32:16.678Z,53.04
2022-10-06T04:34:45.232Z,53.22
2022-10-06T04:37:14.429Z,53.42
2022-10-06T04:39:42.712Z,53.58
2022-10-06T04:42:11.323Z,53.76
2022-10-06T04:44:40.803Z,53.94
2022-10-06T04:47:09.433Z,54.10
2022-10-06T04:49:37.962Z,54.40
2022-10-06T04:52:06.638Z,54.57
2022-10-06T04:54:35.163Z,54.65
2022-10-06T04:57:03.896Z,54.90
2022-10-06T04:59:51.336Z,55.16
2022-10-06T05:02:21.110Z,55.39
2022-10-06T05:04:49.587Z,55.47
2022-10-06T05:07:18.283Z,55.60
2022-10-06T05:09:47.134Z,55.86
2022-10-06T05:12:15.459Z,55.88
2022-10-06T05:14:47.387Z,55.91
2022-10-06T05:17:15.921Z,56.14
2022-10-06T05:19:44.340Z,56.15
2022-10-06T05:22:13.222Z,56.31
2022-10-06T05:24:41.861Z,56.38
2022-10-06T05:27:10.805Z,56.48
2022-10-06T05:29:39.697Z,56.56
2022-10-06T05:32:08.352Z,56.80
2022-10-06T05:34:36.869Z,57.07
2022-10-06T05:37:05.679Z,57.19
2022-10-06T05:39:34.405Z,57.40
2022-10-06T05:42:05.512Z,57.52
2022-10-06T05:44:43.153Z,57.72
2022-10-06T05:47:11.866Z,57.99
2022-10-06T05:49:40.428Z,58.01
2022-10-06T05:52:09.308Z,58.13
2022-10-06T05:54:37.752Z,58.39
2022-10-06T05:57:06.204Z,58.41
2022-10-06T05:59:35.019Z,58.65
2022-10-06T06:02:03.670Z,58.70
2022-10-06T06:04:32.657Z,58.84
2022-10-06T06:07:01.322Z,59.03
2022-10-06T06:09:29.857Z,59.26
2022-10-06T06:12:00.486Z,59.40
2022-10-06T06:14:47.499Z,59.60
2022-10-06T06:17:16.049Z,59.76
2022-10-06T06:19:44.601Z,60.00
2022-10-06T06:22:12.916Z,60.17
2022-10-06T06:24:41.499Z,60.40
2022-10-06T06:27:09.940Z,60.59
2022-10-06T06:29:40.574Z,60.61
2022-10-06T06:32:10.135Z,60.76
2022-10-06T06:34:38.606Z,60.89
2022-10-06T06:37:11.603Z,61.00
2022-10-06T06:39:42.871Z,61.09
2022-10-06T06:42:11.669Z,61.16
2022-10-06T06:44:41.545Z,61.21
2022-10-06T06:47:10.153Z,61.34
2022-10-06T06:49:39.163Z,61.50
2022-10-06T06:52:08.630Z,61.66
2022-10-06T06:54:37.189Z,61.65
2022-10-06T06:57:05.842Z,61.68
2022-10-06T06:59:34.688Z,61.77
2022-10-06T07:02:03.663Z,61.89
2022-10-06T07:04:33.416Z,61.98
2022-10-06T07:07:01.827Z,62.05
2022-10-06T07:09:30.682Z,62.26
2022-10-06T07:11:59.209Z,62.45
2022-10-06T07:14:27.841Z,62.47
2022-10-06T07:17:14.858Z,62.59
2022-10-06T07:19:52.081Z,62.83
2022-10-06T07:22:43.965Z,63.10
2022-10-06T07:25:28.148Z,63.31
2022-10-06T07:27:57.112Z,63.33
2022-10-06T07:30:29.778Z,63.54
2022-10-06T07:32:58.377Z,63.59
2022-10-06T07:35:27.116Z,63.68
2022-10-06T07:37:55.370Z,63.79
2022-10-06T07:40:24.085Z,63.88
2022-10-06T07:42:52.557Z,63.97
2022-10-06T07:45:39.673Z,64.08
2022-10-06T07:48:23.945Z,64.27
2022-10-06T07:50:53.902Z,64.50
2022-10-06T07:53:22.534Z,64.76
2022-10-06T07:55:50.973Z,64.80
2022-10-06T07:58:40.565Z,64.80
2022-10-06T08:01:13.281Z,64.84
2022-10-06T08:03:45.964Z,64.91
2022-10-06T08:06:16.330Z,65.05
2022-10-06T08:08:50.347Z,65.25
2022-10-06T08:11:23.257Z,65.43
2022-10-06T08:13:52.545Z,65.59
2022-10-06T08:16:33.522Z,65.70
2022-10-06T08:19:02.193Z,65.68
2022-10-06T08:21:36.531Z,65.75
2022-10-06T08:24:05.869Z,65.77
2022-10-06T08:26:34.837Z,65.88
2022-10-06T08:29:03.780Z,65.94
2022-10-06T08:31:33.531Z,65.90
2022-10-06T08:34:03.237Z,65.95
2022-10-06T08:36:32.747Z,65.90
2022-10-06T08:39:03.170Z,65.95
2022-10-06T08:41:46.563Z,66.11
2022-10-06T08:44:19.014Z,66.25
2022-10-06T08:47:03.327Z,66.38
2022-10-06T08:49:50.912Z,66.40
2022-10-06T08:53:06.258Z,66.46
2022-10-06T08:55:48.910Z,66.58
2022-10-06T08:58:50.818Z,66.60
2022-10-06T09:01:33.653Z,66.74
2022-10-06T09:04:07.639Z,66.81
2022-10-06T09:07:00.570Z,66.79
2022-10-06T09:10:16.873Z,66.66
2022-10-06T09:12:56.670Z,66.73
2022-10-06T09:15:41.652Z,66.78
2022-10-06T09:19:03.399Z,66.68
2022-10-06T09:21:46.919Z,66.60
2022-10-06T09:24:37.998Z,66.56
2022-10-06T09:27:24.749Z,66.71
2022-10-06T09:29:53.638Z,66.88
2022-10-06T09:32:24.977Z,66.86
2022-10-06T09:35:05.368Z,66.85
2022-10-06T09:38:08.688Z,67.14
2022-10-06T09:40:42.374Z,67.32
2022-10-06T09:43:37.149Z,67.45
2022-10-06T09:46:36.049Z,67.87
2022-10-06T09:49:18.040Z,67.98
2022-10-06T09:52:19.221Z,67.98
2022-10-06T09:55:07.438Z,68.14
2022-10-06T09:57:37.652Z,68.04
2022-10-06T10:00:38.908Z,68.06
2022-10-06T10:03:14.180Z,68.21
2022-10-06T10:05:52.021Z,68.32
2022-10-06T10:08:32.921Z,68.41
2022-10-06T10:11:29.071Z,68.78
2022-10-06T10:14:01.297Z,69.18
2022-10-06T10:16:38.684Z,69.20
2022-10-06T10:19:19.801Z,69.27
2022-10-06T10:21:48.238Z,69.26
2022-10-06T10:24:41.112Z,69.35
2022-10-06T10:27:28.635Z,69.44
2022-10-06T10:30:10.515Z,69.44
2022-10-06T10:33:09.893Z,69.42
2022-10-06T10:35:48.788Z,69.40
2022-10-06T10:38:23.320Z,69.21
2022-10-06T10:41:14.511Z,69.32
2022-10-06T10:44:10.594Z,69.32
2022-10-06T10:46:51.980Z,69.30
2022-10-06T10:49:30.655Z,69.49
2022-10-06T10:52:26.269Z,69.58
2022-10-06T10:55:41.712Z,69.73
2022-10-06T10:58:21.238Z,69.97
2022-10-06T11:00:58.358Z,69.94
2022-10-06T11:03:27.099Z,69.75
2022-10-06T11:06:14.268Z,69.89
2022-10-06T11:09:16.658Z,69.95
2022-10-06T11:12:52.579Z,70.20
2022-10-06T11:16:01.800Z,70.46
2022-10-06T11:18:51.609Z,70.39
2022-10-06T11:21:36.524Z,70.33
2022-10-06T11:24:57.930Z,70.30
2022-10-06T11:27:45.010Z,70.13
2022-10-06T11:30:15.681Z,70.02
2022-10-06T11:33:20.314Z,69.96
2022-10-06T11:35:50.171Z,69.98
2022-10-06T11:39:01.366Z,69.97
2022-10-06T11:41:49.854Z,70.24
2022-10-06T11:44:46.126Z,70.52
2022-10-06T11:47:36.320Z,70.65
2022-10-06T11:50:41.778Z,70.74
2022-10-06T11:53:42.173Z,70.85
2022-10-06T11:56:37.153Z,71.02
2022-10-06T11:59:26.836Z,71.25
2022-10-06T12:01:59.998Z,71.81
2022-10-06T12:04:29.167Z,72.27
2022-10-06T12:07:00.408Z,72.53
2022-10-06T12:09:36.453Z,72.72
2022-10-06T12:12:27.650Z,72.70
2022-10-06T12:18:31.475Z,71.90
2022-10-06T12:21:36.599Z,71.81
2022-10-06T12:24:41.559Z,71.74
2022-10-06T12:27:27.748Z,72.08
2022-10-06T12:30:22.974Z,72.22
2022-10-06T12:33:06.135Z,72.30
2022-10-06T12:35:40.888Z,72.40
2022-10-06T12:38:43.481Z,72.46
2022-10-06T12:41:15.027Z,72.72
2022-10-06T12:43:57.653Z,72.88
2022-10-06T12:46:43.929Z,72.80
2022-10-06T12:49:54.093Z,72.62
2022-10-06T12:52:51.414Z,72.54
2022-10-06T12:55:42.456Z,72.60
2022-10-06T12:58:31.852Z,72.66
2022-10-06T13:01:12.513Z,72.86
2022-10-06T13:03:41.667Z,72.87
2022-10-06T13:06:11.491Z,72.88
2022-10-06T13:08:42.107Z,73.00
2022-10-06T13:11:29.052Z,72.93
2022-10-06T13:14:08.836Z,73.00
2022-10-06T13:16:42.323Z,73.17
2022-10-06T13:19:44.617Z,73.33
2022-10-06T13:22:15.033Z,73.38
2022-10-06T13:24:43.862Z,73.38
2022-10-06T13:27:18.921Z,73.25
2022-10-06T13:29:47.567Z,73.11
2022-10-06T13:32:19.769Z,72.94
2022-10-06T13:34:48.356Z,72.91
2022-10-06T13:37:17.527Z,72.93
2022-10-06T13:39:46.658Z,73.14
2022-10-06T13:42:23.893Z,73.25
2022-10-06T13:45:01.307Z,73.60
2022-10-06T13:47:31.204Z,73.70
2022-10-06T13:50:10.451Z,73.74
2022-10-06T13:52:49.011Z,74.02
2022-10-06T13:55:29.116Z,74.80
2022-10-06T13:58:03.625Z,75.33
2022-10-06T14:00:56.448Z,75.53
2022-10-06T14:03:37.328Z,75.53
2022-10-06T14:06:28.430Z,75.42
2022-10-06T14:10:32.059Z,75.15
2022-10-06T14:13:03.384Z,75.12
2022-10-06T14:15:49.128Z,75.09
2022-10-06T14:18:38.370Z,75.12
2022-10-06T14:21:37.470Z,75.10
2022-10-06T14:24:24.347Z,75.06
2022-10-06T14:26:55.902Z,75.11
2022-10-06T14:29:26.215Z,75.15
2022-10-06T14:31:55.482Z,75.10
2022-10-06T14:34:24.692Z,75.03
2022-10-06T14:36:54.797Z,74.80
2022-10-06T14:39:24.299Z,74.67
2022-10-06T14:41:53.301Z,74.49
2022-10-06T14:44:22.727Z,74.53
2022-10-06T14:46:52.009Z,74.50
2022-10-06T14:49:21.515Z,74.52
2022-10-06T14:51:50.700Z,74.50
2022-10-06T14:54:20.318Z,74.50
2022-10-06T14:56:54.253Z,74.50
2022-10-06T14:59:24.014Z,74.56
2022-10-06T15:01:54.511Z,74.53
2022-10-06T15:04:29.042Z,74.53
2022-10-06T15:07:16.882Z,74.62
2022-10-06T15:09:45.943Z,74.62
2022-10-06T15:12:15.541Z,74.56
2022-10-06T15:14:44.916Z,74.55
2022-10-06T15:17:14.253Z,74.76
2022-10-06T15:19:43.559Z,74.80
2022-10-06T15:22:12.639Z,74.95
2022-10-06T15:24:41.794Z,75.01
2022-10-06T15:27:30.210Z,75.16
2022-10-06T15:29:59.539Z,75.13
2022-10-06T15:32:28.762Z,74.97
2022-10-06T15:34:58.335Z,74.82
2022-10-06T15:37:27.889Z,74.72
2022-10-06T15:39:56.939Z,74.67
2022-10-06T15:42:26.340Z,74.56
2022-10-06T15:44:55.298Z,74.40
2022-10-06T15:47:24.961Z,74.27
2022-10-06T15:49:54.149Z,74.29
2022-10-06T15:52:23.914Z,74.29
2022-10-06T15:54:53.151Z,74.18
2022-10-06T15:57:23.138Z,74.12
2022-10-06T15:59:52.641Z,74.09
2022-10-06T16:02:22.243Z,74.05
2022-10-06T16:05:17.872Z,73.87
2022-10-06T16:07:47.130Z,73.69
2022-10-06T16:10:16.660Z,73.45
2022-10-06T16:12:46.197Z,73.25
2022-10-06T16:15:15.294Z,73.14
2022-10-06T16:17:44.571Z,73.02
2022-10-06T16:20:13.766Z,72.98
2022-10-06T16:22:42.859Z,72.87
2022-10-06T16:25:11.964Z,72.73
2022-10-06T16:27:41.253Z,72.70
2022-10-06T16:30:11.251Z,72.70
2022-10-06T16:32:41.792Z,72.70
2022-10-06T16:35:18.181Z,72.66
2022-10-06T16:37:50.871Z,72.53
2022-10-06T16:40:20.041Z,72.27
2022-10-06T16:42:49.429Z,72.08
2022-10-06T16:45:19.145Z,71.96
2022-10-06T16:47:48.428Z,71.90
2022-10-06T16:50:17.840Z,71.85
2022-10-06T16:52:47.086Z,71.61
2022-10-06T16:55:16.337Z,71.53
2022-10-06T16:57:46.055Z,71.43
2022-10-06T17:00:15.646Z,71.30
2022-10-06T17:02:44.688Z,71.40
2022-10-06T17:05:13.796Z,71.63
2022-10-06T17:07:43.125Z,71.62
2022-10-06T17:10:20.909Z,71.61
2022-10-06T17:12:50.633Z,71.49
2022-10-06T17:15:19.990Z,70.96
2022-10-06T17:17:49.344Z,70.63
2022-10-06T17:20:18.543Z,70.20
2022-10-06T17:22:47.838Z,70.02
2022-10-06T17:25:17.558Z,69.86
2022-10-06T17:27:47.063Z,69.64
2022-10-06T17:30:17.816Z,69.45
2022-10-06T17:32:48.624Z,69.57
2022-10-06T17:35:19.644Z,69.63
2022-10-06T17:37:48.930Z,69.53
2022-10-06T17:40:18.146Z,69.40
2022-10-06T17:42:47.525Z,69.37
2022-10-06T17:45:21.224Z,68.92
2022-10-06T17:47:50.745Z,68.73
2022-10-06T17:50:19.954Z,68.47
2022-10-06T17:52:49.434Z,68.14
2022-10-06T17:55:18.825Z,67.77
2022-10-06T17:57:48.015Z,67.93
2022-10-06T18:00:18.828Z,67.71
2022-10-06T18:02:48.094Z,67.47
2022-10-06T18:05:19.011Z,67.44
2022-10-06T18:07:48.666Z,66.86
2022-10-06T18:10:36.769Z,66.53
2022-10-06T18:13:06.755Z,66.50
2022-10-06T18:15:39.199Z,66.36
2022-10-06T18:18:08.380Z,66.22
2022-10-06T18:20:42.131Z,66.09
2022-10-06T18:23:11.291Z,66.07
2022-10-06T18:25:41.178Z,66.05
2022-10-06T18:28:11.479Z,65.64
2022-10-06T18:30:40.668Z,65.39
2022-10-06T18:36:12.058Z,64.91
2022-10-06T18:38:46.765Z,65.00
2022-10-06T18:41:19.447Z,64.64
2022-10-06T18:43:48.649Z,64.42
2022-10-06T18:46:37.883Z,64.25
2022-10-06T18:49:16.896Z,64.25
2022-10-06T18:51:52.633Z,63.91
2022-10-06T18:54:28.762Z,63.64
2022-10-06T18:56:59.241Z,63.39
2022-10-06T18:59:33.437Z,63.28
2022-10-06T19:02:03.874Z,63.24
2022-10-06T19:04:36.889Z,62.93
2022-10-06T19:07:06.725Z,62.77
2022-10-06T19:09:36.225Z,62.43
2022-10-06T19:12:05.622Z,62.63
2022-10-06T19:14:38.974Z,62.60
2022-10-06T19:17:16.038Z,62.48
2022-10-06T19:19:52.011Z,62.30
2022-10-06T19:22:25.547Z,61.99
2022-10-06T19:24:54.733Z,61.93
2022-10-06T19:27:26.488Z,61.65
2022-10-06T19:29:57.916Z,61.34
2022-10-06T19:32:34.326Z,61.05
2022-10-06T19:35:09.275Z,60.84
2022-10-06T19:37:40.348Z,60.56
2022-10-06T19:40:12.191Z,60.11
2022-10-06T19:42:50.591Z,59.75
2022-10-06T19:45:21.981Z,59.57
2022-10-06T19:47:52.501Z,59.08
2022-10-06T19:50:22.480Z,58.54
2022-10-06T19:52:52.629Z,58.79
2022-10-06T19:55:23.897Z,58.80
2022-10-06T19:57:53.359Z,58.04
2022-10-06T20:00:22.553Z,57.35
2022-10-06T20:02:52.096Z,57.39
2022-10-06T20:05:21.748Z,57.13
2022-10-06T20:07:50.867Z,57.29
2022-10-06T20:10:20.323Z,57.20
2022-10-06T20:12:49.679Z,57.41
2022-10-06T20:15:19.025Z,57.43
2022-10-06T20:17:48.863Z,57.17
2022-10-06T20:20:18.540Z,57.00
2022-10-06T20:22:48.528Z,56.18
2022-10-06T20:25:18.066Z,54.91
2022-10-06T20:27:47.353Z,54.60
2022-10-06T20:30:16.716Z,54.39
2022-10-06T20:32:46.016Z,54.23
2022-10-06T20:35:15.985Z,54.27
2022-10-06T20:37:45.564Z,53.94
2022-10-06T20:40:33.355Z,53.59
2022-10-06T20:43:02.785Z,53.24
2022-10-06T20:45:32.242Z,53.07
2022-10-06T20:48:03.159Z,52.99
2022-10-06T20:50:32.687Z,52.09
2022-10-06T20:53:01.950Z,52.05
2022-10-06T20:55:31.215Z,52.59
2022-10-06T20:58:00.296Z,52.65
2022-10-06T21:00:29.670Z,51.56
2022-10-06T21:02:58.699Z,51.26
2022-10-06T21:05:32.779Z,51.92
2022-10-06T21:08:02.902Z,51.28
2022-10-06T21:10:32.424Z,51.16
2022-10-06T21:13:02.302Z,50.66
2022-10-06T21:15:31.780Z,50.39
2022-10-06T21:18:01.682Z,49.67
2022-10-06T21:20:30.842Z,49.25
2022-10-06T21:23:00.133Z,49.44
2022-10-06T21:25:29.272Z,48.94
2022-10-06T21:27:58.402Z,49.09
2022-10-06T21:30:27.724Z,48.16
2022-10-06T21:32:56.792Z,47.41
2022-10-06T21:35:26.606Z,47.68
2022-10-06T21:37:58.656Z,47.73
2022-10-06T21:40:27.947Z,47.56
2022-10-06T21:42:57.064Z,47.57
2022-10-06T21:45:30.843Z,48.01
2022-10-06T21:48:02.213Z,48.03
2022-10-06T21:50:31.400Z,47.88
2022-10-06T21:53:00.543Z,47.94
2022-10-06T21:55:29.694Z,47.70
2022-10-06T21:57:58.970Z,47.56
2022-10-06T22:00:28.225Z,46.90
2022-10-06T22:02:57.418Z,46.66
2022-10-06T22:05:26.718Z,46.70
2022-10-06T22:07:55.964Z,46.38
2022-10-06T22:10:25.285Z,46.13
2022-10-06T22:12:55.264Z,46.12
2022-10-06T22:15:24.561Z,46.08
2022-10-06T22:17:54.313Z,45.82
2022-10-06T22:20:24.681Z,45.59
2022-10-06T22:22:54.330Z,45.34
2022-10-06T22:25:23.424Z,45.28
2022-10-06T22:27:52.813Z,45.08
2022-10-06T22:30:23.079Z,45.06
2022-10-06T22:32:52.059Z,44.78
2022-10-06T22:35:21.051Z,44.87
2022-10-06T22:37:51.345Z,44.41
2022-10-06T22:40:20.579Z,44.23
2022-10-06T22:42:49.560Z,44.01
2022-10-06T22:45:18.930Z,44.00
2022-10-06T22:47:48.110Z,42.79
2022-10-06T22:50:17.282Z,42.97
2022-10-06T22:52:46.663Z,43.13
2022-10-06T22:55:15.823Z,43.00
2022-10-06T22:57:45.232Z,42.88
2022-10-06T23:00:15.509Z,41.94
2022-10-06T23:02:44.669Z,42.21
2022-10-06T23:05:13.939Z,42.40
2022-10-06T23:07:43.534Z,42.37
2022-10-06T23:10:13.283Z,42.00
2022-10-06T23:12:42.454Z,42.18
2022-10-06T23:15:15.038Z,42.14
2022-10-06T23:17:45.065Z,42.20
2022-10-06T23:20:14.550Z,41.85
2022-10-06T23:22:43.876Z,41.42
2022-10-06T23:25:13.232Z,40.88
2022-10-06T23:27:42.751Z,40.40
2022-10-06T23:30:13.049Z,40.71
2022-10-06T23:32:42.590Z,40.88
2022-10-06T23:35:13.044Z,41.08
2022-10-06T23:37:42.682Z,41.14
2022-10-06T23:40:12.908Z,41.08
2022-10-06T23:42:42.207Z,40.97
2022-10-06T23:45:11.968Z,40.80
2022-10-06T23:47:41.406Z,40.70
2022-10-06T23:50:10.927Z,40.81
2022-10-06T23:52:40.119Z,40.83
2022-10-06T23:55:09.921Z,40.70
2022-10-06T23:57:39.536Z,40.69
